createdAt,value
2022-10-14T00:01:18.421Z,28.50
2022-10-14T00:03:45.553Z,20.60
2022-10-14T00:06:19.351Z,26.70
2022-10-14T00:08:47.683Z,24.65
2022-10-14T00:11:20.570Z,25.70
2022-10-14T00:13:48.169Z,28.25
2022-10-14T00:16:30.140Z,29.02
2022-10-14T00:18:58.329Z,27.95
2022-10-14T00:21:27.240Z,32.92
2022-10-14T00:23:54.899Z,28.00
2022-10-14T00:26:34.008Z,31.83
2022-10-14T00:29:02.673Z,30.50
2022-10-14T00:31:33.959Z,25.23
2022-10-14T00:34:01.502Z,26.48
2022-10-14T00:36:28.762Z,34.83
2022-10-14T00:38:55.952Z,22.83
2022-10-14T00:41:29.217Z,29.83
2022-10-14T00:44:03.527Z,32.00
2022-10-14T00:46:40.027Z,26.80
2022-10-14T00:49:27.650Z,25.95
2022-10-14T00:51:58.620Z,31.20
2022-10-14T00:54:39.585Z,27.40
2022-10-14T00:57:07.066Z,28.08
2022-10-14T00:59:35.767Z,27.95
2022-10-14T01:04:31.446Z,33.20
2022-10-14T01:07:18.494Z,29.83
2022-10-14T01:10:11.630Z,24.95
2022-10-14T01:13:07.833Z,36.08
2022-10-14T01:15:38.720Z,35.17
2022-10-14T01:18:30.813Z,31.85
2022-10-14T01:21:18.714Z,25.95
2022-10-14T01:23:51.488Z,31.10
2022-10-14T01:26:24.581Z,30.05
2022-10-14T01:29:20.670Z,30.55
2022-10-14T01:31:56.979Z,29.25
2022-10-14T01:34:31.061Z,34.13
2022-10-14T01:37:04.295Z,28.88
2022-10-14T01:39:38.069Z,29.08
2022-10-14T01:42:16.425Z,35.53
2022-10-14T01:44:49.073Z,29.63
2022-10-14T01:47:20.352Z,33.58
2022-10-14T01:49:57.240Z,30.08
2022-10-14T01:52:32.758Z,28.17
2022-10-14T01:55:04.361Z,30.55
2022-10-14T01:57:35.273Z,34.28
2022-10-14T02:00:04.630Z,27.75
2022-10-14T02:02:42.345Z,31.98
2022-10-14T02:05:28.692Z,27.10
2022-10-14T02:08:21.044Z,31.08
2022-10-14T02:11:12.536Z,32.25
2022-10-14T02:14:01.388Z,28.50
2022-10-14T02:16:49.515Z,32.83
2022-10-14T02:19:44.326Z,31.83
2022-10-14T02:22:34.147Z,28.45
2022-10-14T02:25:09.642Z,36.97
2022-10-14T02:27:38.300Z,38.08
2022-10-14T02:30:07.745Z,36.47
2022-10-14T02:32:36.844Z,26.23
2022-10-14T02:35:05.897Z,39.42
2022-10-14T02:37:33.833Z,32.10
2022-10-14T02:40:11.621Z,34.00
2022-10-14T02:42:38.883Z,35.30
2022-10-14T02:45:07.919Z,32.92
2022-10-14T02:47:35.006Z,36.10
2022-10-14T02:50:02.127Z,40.20
2022-10-14T02:52:30.209Z,36.45
2022-10-14T02:54:58.045Z,39.72
2022-10-14T02:57:25.135Z,40.78
2022-10-14T02:59:52.142Z,38.40
2022-10-14T03:02:19.448Z,37.78
2022-10-14T03:04:47.707Z,41.00
2022-10-14T03:07:14.774Z,33.90
2022-10-14T03:09:46.201Z,38.38
2022-10-14T03:12:13.440Z,36.17
2022-10-14T03:14:40.707Z,38.40
2022-10-14T03:17:10.381Z,38.10
2022-10-14T03:19:37.556Z,38.75
2022-10-14T03:22:04.648Z,33.90
2022-10-14T03:24:32.304Z,42.15
2022-10-14T03:27:22.773Z,42.20
2022-10-14T03:29:53.759Z,41.88
2022-10-14T03:32:24.153Z,38.15
2022-10-14T03:35:14.307Z,42.08
2022-10-14T03:40:12.200Z,38.13
2022-10-14T03:42:41.475Z,36.08
2022-10-14T03:45:08.879Z,39.50
2022-10-14T03:47:37.830Z,36.90
2022-10-14T03:50:05.772Z,37.55
2022-10-14T03:52:46.411Z,38.78
2022-10-14T03:55:23.217Z,36.70
2022-10-14T03:57:51.915Z,32.80
2022-10-14T04:00:19.603Z,38.13
2022-10-14T04:02:54.831Z,39.17
2022-10-14T04:05:35.398Z,37.35
2022-10-14T04:08:09.237Z,36.17
2022-10-14T04:10:37.789Z,33.35
2022-10-14T04:13:05.120Z,36.50
2022-10-14T04:15:37.285Z,34.58
2022-10-14T04:18:24.581Z,31.65
2022-10-14T04:20:55.123Z,33.25
2022-10-14T04:23:23.896Z,36.40
2022-10-14T04:30:20.754Z,27.58
2022-10-14T04:32:53.637Z,34.65
2022-10-14T04:35:21.418Z,27.90
2022-10-14T04:37:54.975Z,24.73
2022-10-14T04:40:26.263Z,27.15
2022-10-14T04:42:58.706Z,24.42
2022-10-14T04:45:34.016Z,24.50
2022-10-14T04:48:03.689Z,27.25
2022-10-14T04:50:35.184Z,28.92
2022-10-14T04:54:00.475Z,22.85
2022-10-14T04:56:44.440Z,22.17
2022-10-14T04:59:12.719Z,25.48
2022-10-14T05:02:09.254Z,24.67
2022-10-14T05:05:03.582Z,32.45
2022-10-14T05:07:35.714Z,21.65
2022-10-14T05:10:18.666Z,21.27
2022-10-14T05:12:46.718Z,24.77
2022-10-14T05:15:14.167Z,21.70
2022-10-14T05:17:49.335Z,25.83
2022-10-14T05:20:20.384Z,23.80
2022-10-14T05:22:51.566Z,23.17
2022-10-14T05:25:18.900Z,27.15
2022-10-14T05:27:46.039Z,18.05
2022-10-14T05:30:13.599Z,23.27
2022-10-14T05:32:45.590Z,20.55
2022-10-14T05:35:13.146Z,21.73
2022-10-14T05:37:41.359Z,18.60
2022-10-14T05:40:09.500Z,21.70
2022-10-14T05:42:37.513Z,16.73
2022-10-14T05:45:06.007Z,21.98
2022-10-14T05:47:36.567Z,23.98
2022-10-14T05:50:13.121Z,17.92
2022-10-14T05:52:42.526Z,23.77
2022-10-14T05:55:17.014Z,22.05
2022-10-14T05:57:45.536Z,22.42
2022-10-14T06:00:24.658Z,21.25
2022-10-14T06:02:56.773Z,17.13
2022-10-14T06:05:23.716Z,21.75
2022-10-14T06:07:50.740Z,19.35
2022-10-14T06:10:18.225Z,21.77
2022-10-14T06:12:46.531Z,23.98
2022-10-14T06:15:13.577Z,23.98
2022-10-14T06:18:11.724Z,23.25
2022-10-14T06:20:38.799Z,21.95
2022-10-14T06:23:06.038Z,26.10
2022-10-14T06:25:33.030Z,22.13
2022-10-14T06:28:05.227Z,22.48
2022-10-14T06:30:33.218Z,22.95
2022-10-14T06:33:00.281Z,22.27
2022-10-14T06:35:27.266Z,24.63
2022-10-14T06:37:54.540Z,20.73
2022-10-14T06:40:21.845Z,23.30
2022-10-14T06:42:48.999Z,19.95
2022-10-14T06:45:17.528Z,22.83
2022-10-14T06:47:44.557Z,21.05
2022-10-14T06:50:11.586Z,26.05
2022-10-14T06:52:38.562Z,21.55
2022-10-14T06:55:06.075Z,24.27
2022-10-14T06:57:33.137Z,25.50
2022-10-14T07:00:00.188Z,27.33
2022-10-14T07:02:27.287Z,19.35
2022-10-14T07:04:54.305Z,23.77
2022-10-14T07:07:21.322Z,22.98
2022-10-14T07:09:48.618Z,19.92
2022-10-14T07:12:15.864Z,19.55
2022-10-14T07:14:43.169Z,23.25
2022-10-14T07:17:10.230Z,18.50
2022-10-14T07:19:37.221Z,17.38
2022-10-14T07:22:04.950Z,17.73
2022-10-14T07:24:31.915Z,24.85
2022-10-14T07:26:59.059Z,17.95
2022-10-14T07:29:26.096Z,20.27
2022-10-14T07:31:53.240Z,18.00
2022-10-14T07:34:20.473Z,19.05
2022-10-14T07:36:47.618Z,19.63
2022-10-14T07:39:14.768Z,20.73
2022-10-14T07:41:41.769Z,17.05
2022-10-14T07:44:09.341Z,18.05
2022-10-14T07:46:39.184Z,21.75
2022-10-14T07:51:35.621Z,20.67
2022-10-14T07:54:04.869Z,17.60
2022-10-14T07:56:32.053Z,19.55
2022-10-14T07:58:59.339Z,22.33
2022-10-14T08:01:26.451Z,19.55
2022-10-14T08:03:53.616Z,16.75
2022-10-14T08:06:20.968Z,15.30
2022-10-14T08:08:48.640Z,15.70
2022-10-14T08:11:17.222Z,18.02
2022-10-14T08:13:46.278Z,18.48
2022-10-14T08:16:19.544Z,16.10
2022-10-14T08:18:47.365Z,16.02
2022-10-14T08:21:15.247Z,14.15
2022-10-14T08:23:42.519Z,11.00
2022-10-14T08:26:23.568Z,13.70
2022-10-14T08:28:51.880Z,14.95
2022-10-14T08:31:19.385Z,16.83
2022-10-14T08:33:46.566Z,15.00
2022-10-14T08:36:14.722Z,11.75
2022-10-14T08:38:42.031Z,11.95
2022-10-14T08:41:26.384Z,14.10
2022-10-14T08:44:16.980Z,9.02
2022-10-14T08:46:51.013Z,12.05
2022-10-14T08:49:52.580Z,10.90
2022-10-14T08:52:51.575Z,11.35
2022-10-14T08:55:47.745Z,10.37
2022-10-14T08:58:34.873Z,8.70
2022-10-14T09:01:32.399Z,14.82
2022-10-14T09:04:15.004Z,9.25
2022-10-14T09:06:46.331Z,8.50
2022-10-14T09:09:23.891Z,11.23
2022-10-14T09:12:01.239Z,11.45
2022-10-14T09:14:34.493Z,10.65
2022-10-14T09:19:46.982Z,7.85
2022-10-14T09:22:15.686Z,11.45
2022-10-14T09:24:46.281Z,11.32
2022-10-14T09:27:22.446Z,8.18
2022-10-14T09:29:56.830Z,8.98
2022-10-14T09:32:44.104Z,6.40
2022-10-14T09:35:26.665Z,11.05
2022-10-14T09:37:53.897Z,7.22
2022-10-14T09:40:27.036Z,7.35
2022-10-14T09:43:09.126Z,11.25
2022-10-14T09:45:58.184Z,8.73
2022-10-14T09:48:43.889Z,7.83
2022-10-14T09:51:29.919Z,9.40
2022-10-14T09:53:59.685Z,10.88
2022-10-14T10:01:30.021Z,13.70
2022-10-14T10:03:57.540Z,7.65
2022-10-14T10:06:26.799Z,7.57
2022-10-14T10:08:53.742Z,7.30
2022-10-14T10:11:35.818Z,9.02
2022-10-14T10:14:29.703Z,7.22
2022-10-14T10:17:09.846Z,10.63
2022-10-14T10:19:44.190Z,6.95
2022-10-14T10:22:39.058Z,10.35
2022-10-14T10:25:09.087Z,8.40
2022-10-14T10:27:40.218Z,7.35
2022-10-14T10:30:30.083Z,8.27
2022-10-14T10:36:03.507Z,10.40
2022-10-14T10:38:38.397Z,10.50
2022-10-14T10:41:32.286Z,8.05
2022-10-14T10:44:25.811Z,8.73
2022-10-14T10:47:24.477Z,7.65
2022-10-14T10:50:12.364Z,8.63
2022-10-14T10:53:01.500Z,8.07
2022-10-14T10:55:43.895Z,7.53
2022-10-14T10:58:35.626Z,8.32
2022-10-14T11:01:32.065Z,10.75
2022-10-14T11:04:25.251Z,10.93
2022-10-14T11:07:38.681Z,10.60
2022-10-14T11:10:52.149Z,7.90
2022-10-14T11:13:27.239Z,11.02
2022-10-14T11:16:21.309Z,12.02
2022-10-14T11:19:09.764Z,8.48
2022-10-14T11:22:04.724Z,9.40
2022-10-14T11:24:47.555Z,10.90
2022-10-14T11:27:24.889Z,10.73
2022-10-14T11:30:29.513Z,9.20
2022-10-14T11:33:17.476Z,11.63
2022-10-14T11:35:50.895Z,10.95
2022-10-14T11:38:58.496Z,6.32
2022-10-14T11:41:46.176Z,8.98
2022-10-14T11:44:24.085Z,7.70
2022-10-14T11:46:56.584Z,5.97
2022-10-14T11:49:30.308Z,10.45
2022-10-14T11:52:03.664Z,11.40
2022-10-14T11:54:58.981Z,10.18
2022-10-14T12:01:48.299Z,7.30
2022-10-14T12:04:40.428Z,5.22
2022-10-14T12:07:18.412Z,8.02
2022-10-14T12:10:02.088Z,5.25
2022-10-14T12:12:30.830Z,7.70
2022-10-14T12:15:06.403Z,7.00
2022-10-14T12:17:45.290Z,8.73
2022-10-14T12:20:39.451Z,8.73
2022-10-14T12:23:11.399Z,7.47
2022-10-14T12:25:59.073Z,7.05
2022-10-14T12:28:28.619Z,5.72
2022-10-14T12:31:37.249Z,6.10
2022-10-14T12:34:16.948Z,7.43
2022-10-14T12:36:50.807Z,8.45
2022-10-14T12:39:17.840Z,7.65
2022-10-14T12:41:56.107Z,7.53
2022-10-14T12:44:28.782Z,8.57
2022-10-14T12:46:55.741Z,7.53
2022-10-14T12:49:29.112Z,7.28
2022-10-14T12:52:02.851Z,7.45
2022-10-14T12:59:01.241Z,8.00
2022-10-14T13:01:35.289Z,7.82
2022-10-14T13:04:08.311Z,9.88
2022-10-14T13:06:43.045Z,7.82
2022-10-14T13:09:13.022Z,9.98
2022-10-14T13:11:44.726Z,9.75
2022-10-14T13:14:22.933Z,11.50
2022-10-14T13:17:46.698Z,14.48
2022-10-14T13:20:35.555Z,14.60
2022-10-14T13:23:28.624Z,13.55
2022-10-14T13:26:34.110Z,13.35
2022-10-14T13:30:05.705Z,7.80
2022-10-14T13:32:45.487Z,9.60
2022-10-14T13:35:32.667Z,8.85
2022-10-14T13:38:06.869Z,10.13
2022-10-14T13:40:39.891Z,8.68
2022-10-14T13:43:15.551Z,10.40
2022-10-14T13:45:57.522Z,7.63
2022-10-14T13:48:48.428Z,8.93
2022-10-14T13:51:31.998Z,10.80
2022-10-14T13:54:15.194Z,12.13
2022-10-14T13:56:43.081Z,10.68
2022-10-14T13:59:44.055Z,10.30
2022-10-14T14:02:21.854Z,7.53
2022-10-14T14:04:53.128Z,10.23
2022-10-14T14:07:59.041Z,9.65
2022-10-14T14:10:12.079Z,7.30
2022-10-14T14:12:43.146Z,9.18
2022-10-14T14:15:29.292Z,9.70
2022-10-14T14:17:56.424Z,7.53
2022-10-14T14:20:26.053Z,6.32
2022-10-14T14:22:53.860Z,8.18
2022-10-14T14:26:01.269Z,8.65
2022-10-14T14:28:15.482Z,10.02
2022-10-14T14:30:54.344Z,6.95
2022-10-14T14:33:34.253Z,4.40
2022-10-14T14:36:04.678Z,8.07
2022-10-14T14:38:34.642Z,5.63
2022-10-14T14:41:25.782Z,4.90
2022-10-14T14:44:24.181Z,10.93
2022-10-14T14:46:45.563Z,6.25
2022-10-14T14:53:07.327Z,8.97
2022-10-14T14:55:56.144Z,5.28
2022-10-14T14:58:28.339Z,7.45
2022-10-14T15:00:56.096Z,5.45
2022-10-14T15:03:28.555Z,6.22
2022-10-14T15:06:00.076Z,10.32
2022-10-14T15:08:34.652Z,4.90
2022-10-14T15:11:02.786Z,4.35
2022-10-14T15:13:47.697Z,6.40
2022-10-14T15:16:34.772Z,11.07
2022-10-14T15:19:21.070Z,5.43
2022-10-14T15:22:08.402Z,6.40
2022-10-14T15:24:35.814Z,5.38
2022-10-14T15:27:32.000Z,11.07
2022-10-14T15:34:22.985Z,8.35
2022-10-14T15:36:52.235Z,8.13
2022-10-14T15:39:19.586Z,8.65
2022-10-14T15:41:47.273Z,8.20
2022-10-14T15:44:14.722Z,12.15
2022-10-14T15:47:03.023Z,11.88
2022-10-14T15:49:36.158Z,10.45
2022-10-14T15:56:21.558Z,8.43
2022-10-14T15:58:49.371Z,8.48
2022-10-14T16:01:20.545Z,7.63
2022-10-14T16:07:45.599Z,7.22
2022-10-14T16:10:15.640Z,6.07
2022-10-14T16:12:42.915Z,6.32
2022-10-14T16:19:28.985Z,5.70
2022-10-14T16:21:55.976Z,5.03
2022-10-14T16:24:26.035Z,4.93
2022-10-14T16:26:53.860Z,6.15
2022-10-14T16:29:21.755Z,6.70
2022-10-14T16:31:52.465Z,7.78
2022-10-14T16:34:21.535Z,6.90
2022-10-14T16:36:49.127Z,6.30
2022-10-14T16:39:17.122Z,5.97
2022-10-14T16:41:44.281Z,5.47
2022-10-14T16:44:24.827Z,5.90
2022-10-14T16:47:14.590Z,4.25
2022-10-14T16:49:43.079Z,3.85
2022-10-14T16:52:10.146Z,4.32
2022-10-14T16:54:37.108Z,5.07
2022-10-14T16:57:05.377Z,8.95
2022-10-14T16:59:32.682Z,9.05
2022-10-14T17:02:00.009Z,10.38
2022-10-14T17:04:27.206Z,7.30
2022-10-14T17:07:07.365Z,6.03
2022-10-14T17:09:36.083Z,4.60
2022-10-14T17:12:06.873Z,4.15
2022-10-14T17:14:36.875Z,5.35
2022-10-14T17:17:04.282Z,5.10
2022-10-14T17:19:31.332Z,5.03
2022-10-14T17:21:59.737Z,4.03
2022-10-14T17:24:32.103Z,5.18
2022-10-14T17:26:59.271Z,6.20
2022-10-14T17:29:26.567Z,5.25
2022-10-14T17:31:53.626Z,5.30
2022-10-14T17:34:20.705Z,6.32
2022-10-14T17:36:47.976Z,6.82
2022-10-14T17:39:22.870Z,6.55
2022-10-14T17:41:56.390Z,5.35
2022-10-14T17:44:23.667Z,6.75
2022-10-14T17:46:50.872Z,7.63
2022-10-14T17:49:18.031Z,13.85
2022-10-14T17:51:45.103Z,6.03
2022-10-14T17:54:12.744Z,4.68
2022-10-14T17:56:41.007Z,5.07
2022-10-14T17:59:11.449Z,12.80
2022-10-14T18:04:25.735Z,6.05
2022-10-14T18:06:54.310Z,6.60
2022-10-14T18:09:37.927Z,6.47
2022-10-14T18:12:09.889Z,4.50
2022-10-14T18:14:38.940Z,7.43
2022-10-14T18:18:03.557Z,5.43
2022-10-14T18:20:32.134Z,8.55
2022-10-14T18:23:02.925Z,8.07
2022-10-14T18:25:30.112Z,12.85
2022-10-14T18:27:57.063Z,7.97
2022-10-14T18:30:24.273Z,8.27
2022-10-14T18:32:55.393Z,13.00
2022-10-14T18:35:22.445Z,6.60
2022-10-14T18:37:49.417Z,8.10
2022-10-14T18:40:18.374Z,2.78
2022-10-14T18:42:45.377Z,2.70
2022-10-14T18:45:12.366Z,8.50
2022-10-14T18:47:39.421Z,16.48
2022-10-14T18:50:06.649Z,4.65
2022-10-14T18:52:33.936Z,4.07
2022-10-14T18:55:00.912Z,5.90
2022-10-14T18:57:27.989Z,4.47
2022-10-14T18:59:54.957Z,5.35
2022-10-14T19:02:22.957Z,5.72
2022-10-14T19:04:50.210Z,3.92
2022-10-14T19:07:17.241Z,4.38
2022-10-14T19:09:44.733Z,6.20
2022-10-14T19:12:29.992Z,5.55
2022-10-14T19:14:56.963Z,3.45
2022-10-14T19:17:23.998Z,4.30
2022-10-14T19:19:51.398Z,11.10
2022-10-14T19:22:18.721Z,4.88
2022-10-14T19:24:49.265Z,4.32
2022-10-14T19:27:16.305Z,4.22
2022-10-14T19:29:43.273Z,3.45
2022-10-14T19:32:10.225Z,4.45
2022-10-14T19:34:37.205Z,5.03
2022-10-14T19:37:04.171Z,4.03
2022-10-14T19:39:31.345Z,3.15
2022-10-14T19:42:27.993Z,5.65
2022-10-14T19:46:01.796Z,6.40
2022-10-14T19:48:38.368Z,4.93
2022-10-14T19:51:10.530Z,4.38
2022-10-14T19:53:39.033Z,4.82
2022-10-14T20:00:32.067Z,7.15
2022-10-14T20:02:59.047Z,5.00
2022-10-14T20:05:26.094Z,4.20
2022-10-14T20:07:54.663Z,4.65
2022-10-14T20:10:21.744Z,2.03
2022-10-14T20:12:48.929Z,2.30
2022-10-14T20:15:16.009Z,1.60
2022-10-14T20:17:43.062Z,2.60
2022-10-14T20:20:17.530Z,3.13
2022-10-14T20:22:44.674Z,3.42
2022-10-14T20:25:11.790Z,2.72
2022-10-14T20:27:39.122Z,2.17
2022-10-14T20:30:06.591Z,4.30
2022-10-14T20:32:33.702Z,2.15
2022-10-14T20:35:00.802Z,2.80
2022-10-14T20:37:31.066Z,2.30
2022-10-14T20:39:58.451Z,2.30
2022-10-14T20:42:25.527Z,4.88
2022-10-14T20:44:52.605Z,2.92
2022-10-14T20:47:20.008Z,3.47
2022-10-14T20:49:47.187Z,3.65
2022-10-14T20:52:14.827Z,7.38
2022-10-14T21:00:05.226Z,4.90
2022-10-14T21:02:32.607Z,4.35
2022-10-14T21:05:00.199Z,3.83
2022-10-14T21:07:27.228Z,5.57
2022-10-14T21:09:54.498Z,2.90
2022-10-14T21:12:21.803Z,2.13
2022-10-14T21:14:49.158Z,2.60
2022-10-14T21:17:16.254Z,4.05
2022-10-14T21:19:43.338Z,3.03
2022-10-14T21:22:10.453Z,2.50
2022-10-14T21:24:41.106Z,4.05
2022-10-14T21:27:08.630Z,3.15
2022-10-14T21:29:35.649Z,4.97
2022-10-14T21:32:02.777Z,4.78
2022-10-14T21:34:30.307Z,3.05
2022-10-14T21:36:57.543Z,6.07
2022-10-14T21:39:24.613Z,3.92
2022-10-14T21:41:52.197Z,6.57
2022-10-14T21:44:20.951Z,5.75
2022-10-14T21:46:49.055Z,4.00
2022-10-14T21:49:16.430Z,3.13
2022-10-14T21:51:43.449Z,3.28
2022-10-14T21:58:22.824Z,3.63
2022-10-14T22:00:49.896Z,4.50
2022-10-14T22:03:17.855Z,4.15
2022-10-14T22:05:45.285Z,3.50
2022-10-14T22:08:12.255Z,5.45
2022-10-14T22:10:43.720Z,3.38
2022-10-14T22:13:11.424Z,4.32
2022-10-14T22:15:42.962Z,3.08
2022-10-14T22:18:10.187Z,4.30
2022-10-14T22:20:37.336Z,3.10
2022-10-14T22:23:04.411Z,3.85
2022-10-14T22:25:34.366Z,3.60
2022-10-14T22:28:02.870Z,4.53
2022-10-14T22:30:30.309Z,4.32
2022-10-14T22:32:57.448Z,4.65
2022-10-14T22:35:24.904Z,6.45
2022-10-14T22:37:52.142Z,3.90
2022-10-14T22:40:19.135Z,6.72
2022-10-14T22:42:51.361Z,4.55
2022-10-14T22:45:18.736Z,4.20
2022-10-14T22:47:45.704Z,6.93
2022-10-14T22:50:12.682Z,3.88
2022-10-14T22:52:39.676Z,5.43
2022-10-14T22:55:07.426Z,6.28
2022-10-14T22:57:34.582Z,3.20
2022-10-14T23:00:01.879Z,6.43
2022-10-14T23:02:28.877Z,3.00
2022-10-14T23:04:55.843Z,4.78
2022-10-14T23:07:22.989Z,2.85
2022-10-14T23:09:50.039Z,3.47
2022-10-14T23:12:17.072Z,5.93
2022-10-14T23:14:43.983Z,5.13
2022-10-14T23:17:10.977Z,4.28
2022-10-14T23:19:37.964Z,3.42
2022-10-14T23:22:04.946Z,4.18
2022-10-14T23:24:31.895Z,8.70
2022-10-14T23:26:58.876Z,3.13
2022-10-14T23:29:25.882Z,3.50
2022-10-14T23:31:52.900Z,2.40
2022-10-14T23:34:20.178Z,3.13
2022-10-14T23:36:47.339Z,2.28
2022-10-14T23:39:15.133Z,3.70
2022-10-14T23:41:42.201Z,4.07
2022-10-14T23:44:10.755Z,2.75
2022-10-14T23:46:37.827Z,3.17
2022-10-14T23:49:24.472Z,2.03
2022-10-14T23:51:51.875Z,3.10
2022-10-14T23:54:18.809Z,2.58
2022-10-14T23:56:46.067Z,3.33
2022-10-14T23:59:13.102Z,1.73
